OIZJ  Jask  Airport

Jask, Iran

Add Bookmark
ICAO OIZJ
Type Airport
Status Operational
Latitude
25° 39' 12" N
25.653601
Longitude
57° 47' 57" E
57.799301
Local (DST + 5) UTC (GMT + 4)
Aug 5, 2015 12:21 Aug 4, 2015 19:51
Sunrise-Sunset Local UTC
Begin Civil Twilight 05:41 01:11
Sunrise 06:06 01:36
Sunset 07:23 14:53
End Civil Twilight 07:48 15:18
VFR
VFR
MVFR
MVFR
IFR
IFR
LIFR
LIFR
Unknown
Unavailable

Current Weather

METAR Observed
OIZJ 041800Z 22014KT 5000 HZ NSC 33/29 Q1001 Tue, Aug 4, 2015 @ 18:00 UTC
(1 Hour, 51 Minutes ago)
Wind Visibility Conditions
220° at 14 knots (26 kph) 5,005 m
  • Haze
Temperatures Readings Precipitation
Current Temp
33°C
91°F
Dewpoint
29°C
84°F
Heat Index
47°C
117°
Humidity 80%
Altimeter 29.56" Hg
Sea Level Pressure 1,001 mb
Field Elevation
4 m
13 ft
None Recorded
-
-

CheckWX.com is intended as a tool to help pilots better visualize weather data. It is not intended as a substitute for an official weather briefing obtained from a Flight Service Station. CheckWX.com does not meet the FAA requirements for an official pre-flight weather briefing. Therefore, it's important that pilots still call and obtain an official FSS pre-flight weather briefing.

© 2007-2015 CheckWX.com
19:51:59 UTC